createdAt,value
2023-05-13T00:00:06.322Z,1016.49
2023-05-13T00:01:06.327Z,1016.53
2023-05-13T00:02:06.326Z,1016.50
2023-05-13T00:03:06.459Z,1016.48
2023-05-13T00:04:06.323Z,1016.43
2023-05-13T00:05:06.336Z,1016.49
2023-05-13T00:06:06.431Z,1016.53
2023-05-13T00:07:06.333Z,1016.57
2023-05-13T00:08:06.331Z,1016.55
2023-05-13T00:09:06.339Z,1016.50
2023-05-13T00:10:06.334Z,1016.50
2023-05-13T00:11:06.344Z,1016.50
2023-05-13T00:12:06.331Z,1016.52
2023-05-13T00:13:06.349Z,1016.51
2023-05-13T00:14:06.345Z,1016.52
2023-05-13T00:15:06.345Z,1016.49
2023-05-13T00:16:06.369Z,1016.49
2023-05-13T00:17:06.351Z,1016.53
2023-05-13T00:18:06.373Z,1016.51
2023-05-13T00:19:06.451Z,1016.51
2023-05-13T00:20:06.335Z,1016.50
2023-05-13T00:21:06.346Z,1016.55
2023-05-13T00:22:06.380Z,1016.54
2023-05-13T00:23:06.350Z,1016.53
2023-05-13T00:24:06.344Z,1016.54
2023-05-13T00:25:06.350Z,1016.53
2023-05-13T00:26:06.361Z,1016.51
2023-05-13T00:27:06.380Z,1016.53
2023-05-13T00:28:06.345Z,1016.49
2023-05-13T00:29:06.350Z,1016.51
2023-05-13T00:30:06.345Z,1016.52
2023-05-13T00:31:06.403Z,1016.50
2023-05-13T00:32:06.383Z,1016.54
2023-05-13T00:33:06.392Z,1016.51
2023-05-13T00:34:06.347Z,1016.53
2023-05-13T00:35:06.353Z,1016.59
2023-05-13T00:36:06.369Z,1016.56
2023-05-13T00:37:06.677Z,1016.53
2023-05-13T00:38:06.388Z,1016.59
2023-05-13T00:39:06.354Z,1016.61
2023-05-13T00:40:06.355Z,1016.59
2023-05-13T00:41:06.365Z,1016.62
2023-05-13T00:42:06.354Z,1016.58
2023-05-13T00:43:06.379Z,1016.62
2023-05-13T00:44:06.368Z,1016.63
2023-05-13T00:45:06.356Z,1016.62
2023-05-13T00:46:06.471Z,1016.64
2023-05-13T00:47:06.364Z,1016.66
2023-05-13T00:48:06.356Z,1016.64
2023-05-13T00:49:06.364Z,1016.66
2023-05-13T00:50:06.372Z,1016.65
2023-05-13T00:51:06.370Z,1016.65
2023-05-13T00:52:06.358Z,1016.72
2023-05-13T00:53:06.361Z,1016.65
2023-05-13T00:54:06.385Z,1016.73
2023-05-13T00:55:06.374Z,1016.70
2023-05-13T00:56:06.372Z,1016.68
2023-05-13T00:57:06.365Z,1016.69
2023-05-13T00:58:06.383Z,1016.73
2023-05-13T00:59:06.380Z,1016.71
2023-05-13T01:00:06.365Z,1016.71
2023-05-13T01:01:06.398Z,1016.74
2023-05-13T01:02:06.389Z,1016.74
2023-05-13T01:03:06.566Z,1016.76
2023-05-13T01:04:06.376Z,1016.74
2023-05-13T01:05:06.372Z,1016.78
2023-05-13T01:06:06.370Z,1016.77
2023-05-13T01:07:06.379Z,1016.81
2023-05-13T01:08:06.374Z,1016.81
2023-05-13T01:09:06.375Z,1016.74
2023-05-13T01:10:06.468Z,1016.82
2023-05-13T01:11:06.371Z,1016.80
2023-05-13T01:12:06.369Z,1016.80
2023-05-13T01:13:06.379Z,1016.81
2023-05-13T01:14:06.371Z,1016.80
2023-05-13T01:15:06.383Z,1016.82
2023-05-13T01:16:06.429Z,1016.80
2023-05-13T01:17:06.415Z,1016.78
2023-05-13T01:18:06.491Z,1016.76
2023-05-13T01:19:06.420Z,1016.82
2023-05-13T01:20:06.376Z,1016.80
2023-05-13T01:21:06.385Z,1016.78
2023-05-13T01:22:06.372Z,1016.81
2023-05-13T01:23:06.383Z,1016.81
2023-05-13T01:24:06.429Z,1016.83
2023-05-13T01:25:06.384Z,1016.83
2023-05-13T01:26:06.400Z,1016.89
2023-05-13T01:27:06.386Z,1016.88
2023-05-13T01:28:06.380Z,1016.92
2023-05-13T01:29:06.397Z,1016.94
2023-05-13T01:30:06.374Z,1016.93
2023-05-13T01:31:06.450Z,1016.96
2023-05-13T01:32:06.380Z,1016.96
2023-05-13T01:33:06.415Z,1016.98
2023-05-13T01:34:06.400Z,1017.02
2023-05-13T01:35:06.395Z,1016.95
2023-05-13T01:36:06.381Z,1016.96
2023-05-13T01:37:06.388Z,1016.96
2023-05-13T01:38:06.390Z,1016.99
2023-05-13T01:39:06.390Z,1016.97
2023-05-13T01:40:17.032Z,1016.98
2023-05-13T01:41:06.390Z,1017.01
2023-05-13T01:42:06.409Z,1017.02
2023-05-13T01:43:06.387Z,1017.04
2023-05-13T01:44:06.385Z,1017.05
2023-05-13T01:45:06.395Z,1017.07
2023-05-13T01:46:06.420Z,1017.05
2023-05-13T01:47:06.397Z,1017.06
2023-05-13T01:48:06.526Z,1017.01
2023-05-13T01:49:06.393Z,1017.04
2023-05-13T01:50:06.391Z,1017.07
2023-05-13T01:51:06.394Z,1017.08
2023-05-13T01:52:06.392Z,1017.08
2023-05-13T01:53:06.390Z,1017.08
2023-05-13T01:54:06.718Z,1017.07
2023-05-13T01:55:06.394Z,1017.07
2023-05-13T01:56:06.392Z,1017.04
2023-05-13T01:57:06.427Z,1017.01
2023-05-13T01:58:06.417Z,1017.04
2023-05-13T01:59:06.405Z,1017.04
2023-05-13T02:00:06.393Z,1017.01
2023-05-13T02:01:06.402Z,1017.04
2023-05-13T02:02:06.456Z,1017.00
2023-05-13T02:03:06.477Z,1017.00
2023-05-13T02:04:06.615Z,1017.02
2023-05-13T02:05:06.402Z,1016.99
2023-05-13T02:06:06.398Z,1017.04
2023-05-13T02:07:06.415Z,1017.06
2023-05-13T02:08:06.399Z,1017.03
2023-05-13T02:09:06.402Z,1017.06
2023-05-13T02:10:06.418Z,1017.06
2023-05-13T02:11:06.404Z,1017.05
2023-05-13T02:12:06.406Z,1017.03
2023-05-13T02:13:06.405Z,1017.02
2023-05-13T02:14:06.423Z,1017.05
2023-05-13T02:15:06.430Z,1017.06
2023-05-13T02:16:06.442Z,1017.06
2023-05-13T02:17:06.405Z,1017.04
2023-05-13T02:18:06.453Z,1017.06
2023-05-13T02:19:06.516Z,1017.06
2023-05-13T02:20:06.409Z,1017.06
2023-05-13T02:21:06.402Z,1017.08
2023-05-13T02:22:06.414Z,1017.08
2023-05-13T02:23:06.409Z,1017.06
2023-05-13T02:24:06.746Z,1017.05
2023-05-13T02:25:06.410Z,1017.08
2023-05-13T02:26:06.422Z,1017.05
2023-05-13T02:27:06.413Z,1017.06
2023-05-13T02:28:06.410Z,1017.06
2023-05-13T02:29:06.413Z,1017.07
2023-05-13T02:30:06.457Z,1017.05
2023-05-13T02:31:06.411Z,1017.06
2023-05-13T02:32:06.506Z,1017.06
2023-05-13T02:33:06.486Z,1017.05
2023-05-13T02:34:06.418Z,1017.06
2023-05-13T02:35:06.413Z,1017.07
2023-05-13T02:36:06.421Z,1017.09
2023-05-13T02:37:06.427Z,1017.09
2023-05-13T02:38:06.431Z,1017.09
2023-05-13T02:39:06.411Z,1017.12
2023-05-13T02:40:06.423Z,1017.11
2023-05-13T02:41:06.421Z,1017.10
2023-05-13T02:42:06.420Z,1017.10
2023-05-13T02:43:06.426Z,1017.09
2023-05-13T02:44:06.419Z,1017.08
2023-05-13T02:45:06.420Z,1017.04
2023-05-13T02:46:06.516Z,1017.07
2023-05-13T02:47:06.421Z,1017.08
2023-05-13T02:48:06.461Z,1017.08
2023-05-13T02:49:06.428Z,1017.11
2023-05-13T02:50:06.442Z,1017.15
2023-05-13T02:51:06.425Z,1017.16
2023-05-13T02:52:06.427Z,1017.14
2023-05-13T02:53:06.419Z,1017.14
2023-05-13T02:54:06.427Z,1017.13
2023-05-13T02:55:06.472Z,1017.12
2023-05-13T02:56:06.429Z,1017.12
2023-05-13T02:57:06.426Z,1017.12
2023-05-13T02:58:06.444Z,1017.14
2023-05-13T02:59:06.426Z,1017.12
2023-05-13T03:00:06.452Z,1017.10
2023-05-13T03:01:06.516Z,1017.22
2023-05-13T03:02:06.492Z,1017.19
2023-05-13T03:03:06.526Z,1017.21
2023-05-13T03:04:06.432Z,1017.18
2023-05-13T03:05:06.432Z,1017.20
2023-05-13T03:06:06.436Z,1017.21
2023-05-13T03:07:06.428Z,1017.20
2023-05-13T03:08:06.433Z,1017.17
2023-05-13T03:09:06.426Z,1017.20
2023-05-13T03:10:06.428Z,1017.21
2023-05-13T03:11:06.437Z,1017.23
2023-05-13T03:12:06.434Z,1017.19
2023-05-13T03:13:06.429Z,1017.23
2023-05-13T03:14:06.438Z,1017.23
2023-05-13T03:15:07.840Z,1017.26
2023-05-13T03:16:06.474Z,1017.26
2023-05-13T03:17:06.432Z,1017.24
2023-05-13T03:18:06.454Z,1017.24
2023-05-13T03:19:06.515Z,1017.31
2023-05-13T03:20:06.433Z,1017.27
2023-05-13T03:21:06.432Z,1017.23
2023-05-13T03:22:06.441Z,1017.26
2023-05-13T03:23:06.432Z,1017.29
2023-05-13T03:24:06.436Z,1017.30
2023-05-13T03:25:06.438Z,1017.30
2023-05-13T03:26:06.434Z,1017.31
2023-05-13T03:27:06.438Z,1017.30
2023-05-13T03:28:06.437Z,1017.33
2023-05-13T03:29:06.441Z,1017.32
2023-05-13T03:30:06.434Z,1017.33
2023-05-13T03:31:06.479Z,1017.37
2023-05-13T03:32:06.453Z,1017.31
2023-05-13T03:33:06.446Z,1017.28
2023-05-13T03:34:06.458Z,1017.32
2023-05-13T03:35:06.467Z,1017.33
2023-05-13T03:36:06.441Z,1017.31
2023-05-13T03:37:06.464Z,1017.33
2023-05-13T03:38:06.441Z,1017.31
2023-05-13T03:39:06.439Z,1017.36
2023-05-13T03:40:06.439Z,1017.35
2023-05-13T03:41:06.431Z,1017.37
2023-05-13T03:42:06.451Z,1017.39
2023-05-13T03:43:06.432Z,1017.40
2023-05-13T03:44:06.446Z,1017.41
2023-05-13T03:45:06.434Z,1017.39
2023-05-13T03:46:06.436Z,1017.36
2023-05-13T03:47:06.472Z,1017.41
2023-05-13T03:48:06.479Z,1017.38
2023-05-13T03:49:06.435Z,1017.39
2023-05-13T03:50:06.469Z,1017.45
2023-05-13T03:51:06.441Z,1017.42
2023-05-13T03:52:06.439Z,1017.50
2023-05-13T03:53:06.431Z,1017.50
2023-05-13T03:54:06.449Z,1017.50
2023-05-13T03:55:06.464Z,1017.48
2023-05-13T03:56:06.438Z,1017.51
2023-05-13T03:57:06.438Z,1017.49
2023-05-13T03:58:06.446Z,1017.52
2023-05-13T03:59:06.446Z,1017.53
2023-05-13T04:00:06.437Z,1017.51
2023-05-13T04:01:06.438Z,1017.55
2023-05-13T04:02:06.510Z,1017.56
2023-05-13T04:03:06.462Z,1017.54
2023-05-13T04:04:06.438Z,1017.56
2023-05-13T04:05:06.454Z,1017.56
2023-05-13T04:06:06.477Z,1017.60
2023-05-13T04:07:06.442Z,1017.61
2023-05-13T04:08:06.442Z,1017.63
2023-05-13T04:09:06.441Z,1017.61
2023-05-13T04:10:06.450Z,1017.63
2023-05-13T04:11:06.446Z,1017.61
2023-05-13T04:12:06.445Z,1017.62
2023-05-13T04:13:06.445Z,1017.63
2023-05-13T04:14:06.447Z,1017.64
2023-05-13T04:15:06.446Z,1017.65
2023-05-13T04:16:06.456Z,1017.67
2023-05-13T04:17:06.565Z,1017.71
2023-05-13T04:18:06.582Z,1017.71
2023-05-13T04:19:06.492Z,1017.74
2023-05-13T04:20:06.457Z,1017.74
2023-05-13T04:21:06.441Z,1017.67
2023-05-13T04:22:06.467Z,1017.71
2023-05-13T04:23:06.446Z,1017.73
2023-05-13T04:24:06.447Z,1017.76
2023-05-13T04:25:06.439Z,1017.75
2023-05-13T04:26:06.442Z,1017.77
2023-05-13T04:27:06.462Z,1017.77
2023-05-13T04:28:06.456Z,1017.79
2023-05-13T04:29:06.443Z,1017.80
2023-05-13T04:30:06.461Z,1017.83
2023-05-13T04:31:06.453Z,1017.83
2023-05-13T04:32:06.490Z,1017.85
2023-05-13T04:33:06.506Z,1017.86
2023-05-13T04:34:06.446Z,1017.85
2023-05-13T04:35:06.443Z,1017.88
2023-05-13T04:36:06.446Z,1017.85
2023-05-13T04:37:06.441Z,1017.87
2023-05-13T04:38:06.520Z,1017.85
2023-05-13T04:39:06.441Z,1017.87
2023-05-13T04:40:06.451Z,1017.88
2023-05-13T04:41:06.449Z,1017.89
2023-05-13T04:42:06.451Z,1017.93
2023-05-13T04:43:06.451Z,1017.89
2023-05-13T04:44:06.451Z,1017.91
2023-05-13T04:45:06.445Z,1017.89
2023-05-13T04:46:06.480Z,1017.94
2023-05-13T04:47:06.446Z,1017.95
2023-05-13T04:48:06.530Z,1017.95
2023-05-13T04:49:06.449Z,1017.93
2023-05-13T04:50:06.459Z,1017.97
2023-05-13T04:51:06.449Z,1017.98
2023-05-13T04:52:06.440Z,1018.04
2023-05-13T04:53:06.451Z,1018.06
2023-05-13T04:54:06.469Z,1018.02
2023-05-13T04:55:06.444Z,1018.03
2023-05-13T04:56:06.448Z,1018.03
2023-05-13T04:57:06.447Z,1018.05
2023-05-13T04:58:06.452Z,1018.05
2023-05-13T04:59:06.446Z,1018.04
2023-05-13T05:00:06.467Z,1018.05
2023-05-13T05:01:06.447Z,1018.08
2023-05-13T05:02:06.522Z,1018.07
2023-05-13T05:03:06.463Z,1018.06
2023-05-13T05:04:06.471Z,1018.04
2023-05-13T05:05:06.446Z,1018.06
2023-05-13T05:06:06.453Z,1018.08
2023-05-13T05:07:06.451Z,1018.10
2023-05-13T05:08:06.450Z,1018.08
2023-05-13T05:09:06.454Z,1018.13
2023-05-13T05:10:06.475Z,1018.10
2023-05-13T05:11:06.460Z,1018.14
2023-05-13T05:12:06.456Z,1018.08
2023-05-13T05:13:06.466Z,1018.10
2023-05-13T05:14:06.449Z,1018.07
2023-05-13T05:15:06.450Z,1018.08
2023-05-13T05:16:06.447Z,1018.12
2023-05-13T05:17:06.497Z,1018.14
2023-05-13T05:18:06.597Z,1018.12
2023-05-13T05:19:06.484Z,1018.14
2023-05-13T05:20:06.467Z,1018.11
2023-05-13T05:21:06.459Z,1018.06
2023-05-13T05:22:06.453Z,1018.11
2023-05-13T05:23:06.467Z,1018.17
2023-05-13T05:24:06.588Z,1018.16
2023-05-13T05:25:06.453Z,1018.17
2023-05-13T05:26:11.528Z,1018.18
2023-05-13T05:27:06.451Z,1018.19
2023-05-13T05:28:06.467Z,1018.19
2023-05-13T05:29:06.462Z,1018.20
2023-05-13T05:30:06.460Z,1018.19
2023-05-13T05:31:06.489Z,1018.26
2023-05-13T05:32:06.526Z,1018.25
2023-05-13T05:33:06.580Z,1018.22
2023-05-13T05:34:06.455Z,1018.22
2023-05-13T05:35:06.464Z,1018.27
2023-05-13T05:36:06.460Z,1018.22
2023-05-13T05:37:06.452Z,1018.20
2023-05-13T05:38:06.464Z,1018.28
2023-05-13T05:39:06.457Z,1018.30
2023-05-13T05:40:06.472Z,1018.29
2023-05-13T05:41:06.453Z,1018.30
2023-05-13T05:43:06.455Z,1018.27
2023-05-13T05:44:06.453Z,1018.33
2023-05-13T05:45:06.454Z,1018.34
2023-05-13T05:46:06.520Z,1018.36
2023-05-13T05:47:06.457Z,1018.32
2023-05-13T05:48:06.490Z,1018.34
2023-05-13T05:49:06.458Z,1018.37
2023-05-13T05:50:06.462Z,1018.35
2023-05-13T05:51:06.470Z,1018.38
2023-05-13T05:52:06.482Z,1018.36
2023-05-13T05:53:06.455Z,1018.43
2023-05-13T05:54:06.481Z,1018.41
2023-05-13T05:55:06.467Z,1018.42
2023-05-13T05:56:06.471Z,1018.40
2023-05-13T05:57:06.453Z,1018.42
2023-05-13T05:58:06.534Z,1018.43
2023-05-13T05:59:06.467Z,1018.45
2023-05-13T06:00:06.464Z,1018.44
2023-05-13T06:01:06.463Z,1018.51
2023-05-13T06:02:06.487Z,1018.52
2023-05-13T06:03:06.724Z,1018.53
2023-05-13T06:04:06.649Z,1018.54
2023-05-13T06:05:06.468Z,1018.45
2023-05-13T06:06:06.463Z,1018.46
2023-05-13T06:07:06.521Z,1018.43
2023-05-13T06:08:06.492Z,1018.48
2023-05-13T06:09:06.466Z,1018.43
2023-05-13T06:10:08.300Z,1018.45
2023-05-13T06:11:06.465Z,1018.40
2023-05-13T06:12:06.466Z,1018.39
2023-05-13T06:13:06.464Z,1018.42
2023-05-13T06:14:06.494Z,1018.34
2023-05-13T06:15:06.476Z,1018.37
2023-05-13T06:16:06.497Z,1018.32
2023-05-13T06:17:06.477Z,1018.32
2023-05-13T06:18:06.505Z,1018.28
2023-05-13T06:19:06.639Z,1018.32
2023-05-13T06:20:06.471Z,1018.36
2023-05-13T06:21:06.477Z,1018.39
2023-05-13T06:22:06.480Z,1018.33
2023-05-13T06:23:06.473Z,1018.39
2023-05-13T06:24:06.807Z,1018.39
2023-05-13T06:25:06.470Z,1018.41
2023-05-13T06:26:06.479Z,1018.41
2023-05-13T06:27:06.481Z,1018.43
2023-05-13T06:28:06.476Z,1018.41
2023-05-13T06:29:06.478Z,1018.42
2023-05-13T06:30:06.509Z,1018.38
2023-05-13T06:31:06.585Z,1018.38
2023-05-13T06:32:06.477Z,1018.37
2023-05-13T06:33:06.518Z,1018.37
2023-05-13T06:34:06.486Z,1018.36
2023-05-13T06:35:06.491Z,1018.41
2023-05-13T06:36:06.477Z,1018.36
2023-05-13T06:37:06.485Z,1018.33
2023-05-13T06:38:06.492Z,1018.33
2023-05-13T06:39:06.494Z,1018.33
2023-05-13T06:40:06.482Z,1018.33
2023-05-13T06:41:06.487Z,1018.28
2023-05-13T06:42:06.489Z,1018.29
2023-05-13T06:43:06.486Z,1018.27
2023-05-13T06:44:06.484Z,1018.32
2023-05-13T06:45:06.488Z,1018.29
2023-05-13T06:46:06.507Z,1018.27
2023-05-13T06:47:06.542Z,1018.26
2023-05-13T06:48:06.562Z,1018.24
2023-05-13T06:49:06.494Z,1018.25
2023-05-13T06:50:06.495Z,1018.22
2023-05-13T06:51:06.504Z,1018.28
2023-05-13T06:52:06.493Z,1018.20
2023-05-13T06:53:06.496Z,1018.27
2023-05-13T06:54:06.498Z,1018.25
2023-05-13T06:55:06.510Z,1018.29
2023-05-13T06:56:06.504Z,1018.27
2023-05-13T06:57:06.498Z,1018.27
2023-05-13T06:58:06.504Z,1018.24
2023-05-13T06:59:06.536Z,1018.24
2023-05-13T07:00:06.501Z,1018.24
2023-05-13T07:01:06.583Z,1018.26
2023-05-13T07:02:06.523Z,1018.21
2023-05-13T07:03:06.542Z,1018.17
2023-05-13T07:04:06.537Z,1018.20
2023-05-13T07:05:06.512Z,1018.21
2023-05-13T07:06:06.510Z,1018.18
2023-05-13T07:07:06.505Z,1018.13
2023-05-13T07:08:06.519Z,1018.19
2023-05-13T07:09:08.415Z,1018.17
2023-05-13T07:10:06.531Z,1018.12
2023-05-13T07:11:06.540Z,1018.15
2023-05-13T07:12:06.513Z,1018.12
2023-05-13T07:13:06.512Z,1018.12
2023-05-13T07:14:06.510Z,1018.16
2023-05-13T07:15:06.519Z,1018.10
2023-05-13T07:16:06.519Z,1018.11
2023-05-13T07:17:06.564Z,1018.15
2023-05-13T07:18:06.586Z,1018.19
2023-05-13T07:19:06.553Z,1018.16
2023-05-13T07:20:06.518Z,1018.20
2023-05-13T07:21:06.554Z,1018.18
2023-05-13T07:22:06.531Z,1018.21
2023-05-13T07:23:06.535Z,1018.25
2023-05-13T07:24:06.532Z,1018.22
2023-05-13T07:25:06.534Z,1018.23
2023-05-13T07:26:06.532Z,1018.22
2023-05-13T07:27:06.532Z,1018.22
2023-05-13T07:28:06.533Z,1018.13
2023-05-13T07:29:06.542Z,1018.11
2023-05-13T07:30:06.549Z,1018.24
2023-05-13T07:31:06.567Z,1018.18
2023-05-13T07:32:06.575Z,1018.17
2023-05-13T07:33:06.554Z,1018.17
2023-05-13T07:34:06.563Z,1018.09
2023-05-13T07:35:06.547Z,1018.16
2023-05-13T07:36:06.547Z,1018.15
2023-05-13T07:37:06.548Z,1018.17
2023-05-13T07:38:06.557Z,1018.18
2023-05-13T07:39:07.103Z,1018.16
2023-05-13T07:40:06.570Z,1020.19
2023-05-13T07:41:06.556Z,1024.78
2023-05-13T07:42:06.554Z,1029.62
2023-05-13T07:43:06.566Z,1032.80
2023-05-13T07:44:06.557Z,1033.41
2023-05-13T07:45:06.564Z,1033.69
2023-05-13T07:46:06.564Z,1033.82
2023-05-13T07:47:06.623Z,1033.11
2023-05-13T07:48:06.639Z,1032.90
2023-05-13T07:49:06.577Z,1032.84
2023-05-13T07:50:06.600Z,1032.47
2023-05-13T07:51:06.584Z,1032.66
2023-05-13T07:52:06.582Z,1033.78
2023-05-13T07:53:06.589Z,1034.79
2023-05-13T07:54:06.600Z,1035.34
2023-05-13T07:55:06.594Z,1035.85
2023-05-13T07:56:06.600Z,1035.27
2023-05-13T07:57:06.601Z,1033.99
2023-05-13T07:58:06.663Z,1033.57
2023-05-13T07:59:06.606Z,1033.05
2023-05-13T08:00:06.622Z,1032.39
2023-05-13T08:01:06.618Z,1031.97
2023-05-13T08:02:06.624Z,1031.80
2023-05-13T08:03:06.728Z,1031.18
2023-05-13T08:04:06.755Z,1029.55
2023-05-13T08:05:06.787Z,1029.01
2023-05-13T08:06:06.672Z,1028.70
2023-05-13T08:07:06.663Z,1027.92
2023-05-13T08:08:06.660Z,1027.62
2023-05-13T08:09:06.660Z,1027.70
2023-05-13T08:10:06.672Z,1027.76
2023-05-13T08:11:06.671Z,1027.69
2023-05-13T08:12:06.677Z,1027.40
2023-05-13T08:13:06.692Z,1026.98
2023-05-13T08:14:06.691Z,1026.40
2023-05-13T08:15:06.697Z,1025.66
2023-05-13T08:16:06.715Z,1025.13
2023-05-13T08:17:06.714Z,1024.88
2023-05-13T08:18:06.775Z,1024.96
2023-05-13T08:19:06.768Z,1024.91
2023-05-13T08:20:06.734Z,1024.33
2023-05-13T08:21:06.746Z,1022.35
2023-05-13T08:22:06.777Z,1019.60
2023-05-13T08:23:06.761Z,1018.59
2023-05-13T08:24:06.765Z,1018.49
2023-05-13T08:25:06.775Z,1018.47
2023-05-13T08:26:06.785Z,1018.49
2023-05-13T08:27:06.790Z,1018.51
2023-05-13T08:28:06.800Z,1018.41
2023-05-13T08:29:06.827Z,1018.41
2023-05-13T08:30:06.812Z,1018.47
2023-05-13T08:31:06.823Z,1019.29
2023-05-13T08:32:06.875Z,1019.84
2023-05-13T08:33:06.854Z,1019.38
2023-05-13T08:34:06.853Z,1018.86
2023-05-13T08:35:06.856Z,1018.56
2023-05-13T08:36:06.853Z,1018.59
2023-05-13T08:37:06.868Z,1019.54
2023-05-13T08:38:06.906Z,1020.22
2023-05-13T08:39:06.886Z,1020.20
2023-05-13T08:40:06.893Z,1020.18
2023-05-13T08:41:06.902Z,1020.18
2023-05-13T08:42:06.916Z,1020.24
2023-05-13T08:43:06.923Z,1020.18
2023-05-13T08:44:06.986Z,1020.14
2023-05-13T08:45:06.941Z,1020.14
2023-05-13T08:46:06.988Z,1020.20
2023-05-13T08:47:06.965Z,1020.21
2023-05-13T08:48:07.004Z,1020.10
2023-05-13T08:49:06.982Z,1020.00
2023-05-13T08:50:06.995Z,1019.94
2023-05-13T08:51:07.008Z,1020.00
2023-05-13T08:52:07.010Z,1020.02
2023-05-13T08:53:07.024Z,1019.94
2023-05-13T08:54:07.056Z,1020.10
2023-05-13T08:55:07.045Z,1020.04
2023-05-13T08:56:07.063Z,1019.96
2023-05-13T08:57:07.075Z,1019.91
2023-05-13T08:58:07.081Z,1019.91
2023-05-13T08:59:07.098Z,1019.80
2023-05-13T09:00:07.112Z,1019.81
2023-05-13T09:01:07.145Z,1018.38
2023-05-13T09:02:07.130Z,1019.77
2023-05-13T09:03:07.252Z,1019.66
2023-05-13T09:04:07.269Z,1019.77
2023-05-13T09:05:07.222Z,1019.75
2023-05-13T09:06:07.194Z,1019.65
2023-05-13T09:07:07.197Z,1019.59
2023-05-13T09:08:07.219Z,1019.62
2023-05-13T09:09:07.226Z,1019.61
2023-05-13T09:10:07.270Z,1019.56
2023-05-13T09:11:07.261Z,1019.57
2023-05-13T09:12:07.266Z,1019.53
2023-05-13T09:13:07.284Z,1019.49
2023-05-13T09:14:07.313Z,1019.52
2023-05-13T09:15:07.324Z,1019.44
2023-05-13T09:16:07.360Z,1019.39
2023-05-13T09:17:07.349Z,1019.36
2023-05-13T09:18:07.448Z,1019.38
2023-05-13T09:19:07.455Z,1019.41
2023-05-13T09:20:07.466Z,1019.43
2023-05-13T09:21:07.402Z,1019.36
2023-05-13T09:22:07.410Z,1019.32
2023-05-13T09:23:07.446Z,1019.23
2023-05-13T09:24:08.878Z,1019.28
2023-05-13T09:25:07.464Z,1019.36
2023-05-13T09:26:07.501Z,1019.34
2023-05-13T09:27:07.496Z,1019.29
2023-05-13T09:28:07.522Z,1019.31
2023-05-13T09:29:07.535Z,1019.30
2023-05-13T09:30:07.557Z,1019.26
2023-05-13T09:31:07.591Z,1019.22
2023-05-13T09:32:07.580Z,1019.24
2023-05-13T09:33:07.732Z,1019.29
2023-05-13T09:34:07.613Z,1019.44
2023-05-13T09:35:07.630Z,1019.43
2023-05-13T09:36:07.653Z,1019.29
2023-05-13T09:37:07.703Z,1018.24
2023-05-13T09:38:07.686Z,1018.19
2023-05-13T09:39:07.738Z,1018.23
2023-05-13T09:40:07.719Z,1018.19
2023-05-13T09:41:07.756Z,1018.26
2023-05-13T09:42:07.779Z,1018.21
2023-05-13T09:43:07.782Z,1018.13
2023-05-13T09:44:07.788Z,1018.13
2023-05-13T09:45:07.815Z,1018.12
2023-05-13T09:46:07.822Z,1018.09
2023-05-13T09:47:07.984Z,1018.08
2023-05-13T09:48:07.880Z,1018.10
2023-05-13T09:49:07.884Z,1018.07
2023-05-13T09:50:07.890Z,1018.21
2023-05-13T09:51:07.899Z,1018.18
2023-05-13T09:52:07.937Z,1018.17
2023-05-13T09:53:07.931Z,1018.14
2023-05-13T09:54:07.941Z,1018.10
2023-05-13T09:55:07.969Z,1018.11
2023-05-13T09:56:07.975Z,1018.05
2023-05-13T09:57:07.988Z,1018.11
2023-05-13T09:58:08.018Z,1018.00
2023-05-13T09:59:08.042Z,1018.01
2023-05-13T10:01:08.070Z,1018.03
2023-05-13T10:02:08.048Z,1017.99
2023-05-13T10:03:08.136Z,1018.00
2023-05-13T10:04:08.120Z,1018.03
2023-05-13T10:05:08.088Z,1017.95
2023-05-13T10:06:08.117Z,1017.94
2023-05-13T10:07:08.109Z,1018.00
2023-05-13T10:08:08.119Z,1017.94
2023-05-13T10:09:08.127Z,1017.94
2023-05-13T10:10:08.136Z,1017.98
2023-05-13T10:11:08.167Z,1017.93
2023-05-13T10:12:08.170Z,1018.05
2023-05-13T10:13:08.170Z,1017.98
2023-05-13T10:14:08.204Z,1018.02
2023-05-13T10:15:08.192Z,1018.02
2023-05-13T10:16:08.232Z,1017.98
2023-05-13T10:17:08.260Z,1017.97
2023-05-13T10:18:08.234Z,1018.04
2023-05-13T10:19:08.310Z,1018.04
2023-05-13T10:20:08.228Z,1018.10
2023-05-13T10:21:08.251Z,1018.10
2023-05-13T10:22:08.245Z,1018.09
2023-05-13T10:23:08.263Z,1018.06
2023-05-13T10:24:08.277Z,1018.04
2023-05-13T10:25:08.276Z,1017.95
2023-05-13T10:26:08.295Z,1017.83
2023-05-13T10:27:08.318Z,1017.86
2023-05-13T10:28:08.304Z,1017.86
2023-05-13T10:29:08.316Z,1017.91
2023-05-13T10:30:08.341Z,1017.99
2023-05-13T10:31:08.328Z,1018.02
2023-05-13T10:32:08.408Z,1018.00
2023-05-13T10:33:08.397Z,1017.95
2023-05-13T10:34:08.368Z,1018.01
2023-05-13T10:35:08.369Z,1018.09
2023-05-13T10:36:08.372Z,1018.01
2023-05-13T10:37:08.385Z,1017.92
2023-05-13T10:38:08.389Z,1017.85
2023-05-13T10:39:08.402Z,1017.96
2023-05-13T10:40:08.404Z,1018.17
2023-05-13T10:41:08.423Z,1018.31
2023-05-13T10:42:08.429Z,1018.44
2023-05-13T10:43:08.441Z,1018.60
2023-05-13T10:44:09.887Z,1018.73
2023-05-13T10:45:08.464Z,1018.93
2023-05-13T10:46:08.600Z,1019.21
2023-05-13T10:47:08.503Z,1019.25
2023-05-13T10:48:08.604Z,1019.19
2023-05-13T10:49:08.509Z,1019.12
2023-05-13T10:50:08.537Z,1019.04
2023-05-13T10:51:08.535Z,1019.37
2023-05-13T10:52:08.552Z,1019.65
2023-05-13T10:53:08.551Z,1019.64
2023-05-13T10:54:08.567Z,1019.66
2023-05-13T10:55:08.575Z,1019.45
2023-05-13T10:56:08.592Z,1019.50
2023-05-13T10:57:08.616Z,1019.53
2023-05-13T10:58:08.620Z,1019.46
2023-05-13T10:59:08.630Z,1019.35
2023-05-13T11:00:08.647Z,1019.27
2023-05-13T11:01:08.667Z,1019.22
2023-05-13T11:02:08.906Z,1019.13
2023-05-13T11:03:08.801Z,1019.20
2023-05-13T11:04:08.849Z,1019.25
2023-05-13T11:05:08.730Z,1019.19
2023-05-13T11:06:08.732Z,1019.04
2023-05-13T11:07:08.743Z,1019.00
2023-05-13T11:08:08.764Z,1019.03
2023-05-13T11:09:08.780Z,1019.21
2023-05-13T11:10:08.802Z,1019.12
2023-05-13T11:11:08.804Z,1019.19
2023-05-13T11:12:08.830Z,1019.14
2023-05-13T11:13:08.853Z,1019.10
2023-05-13T11:14:09.024Z,1018.97
2023-05-13T11:15:08.880Z,1018.91
2023-05-13T11:16:08.915Z,1018.86
2023-05-13T11:17:08.921Z,1018.83
2023-05-13T11:18:08.993Z,1018.80
2023-05-13T11:19:08.989Z,1018.84
2023-05-13T11:20:08.985Z,1018.83
2023-05-13T11:21:08.990Z,1018.84
2023-05-13T11:22:09.005Z,1018.82
2023-05-13T11:23:09.026Z,1018.92
2023-05-13T11:24:09.057Z,1018.78
2023-05-13T11:25:09.125Z,1018.73
2023-05-13T11:26:11.900Z,1018.90
2023-05-13T11:27:09.107Z,1018.83
2023-05-13T11:28:09.123Z,1018.82
2023-05-13T11:29:09.143Z,1018.82
2023-05-13T11:30:09.162Z,1018.78
2023-05-13T11:31:09.201Z,1018.73
2023-05-13T11:32:09.209Z,1018.69
2023-05-13T11:33:09.251Z,1018.74
2023-05-13T11:34:09.269Z,1018.70
2023-05-13T11:35:09.265Z,1018.69
2023-05-13T11:36:09.282Z,1018.68
2023-05-13T11:37:09.325Z,1018.71
2023-05-13T11:38:09.330Z,1018.59
2023-05-13T11:39:09.347Z,1018.63
2023-05-13T11:40:09.371Z,1018.67
2023-05-13T11:41:09.396Z,1018.66
2023-05-13T11:42:09.437Z,1018.63
2023-05-13T11:43:09.454Z,1018.56
2023-05-13T11:44:09.459Z,1018.57
2023-05-13T11:45:09.479Z,1018.48
2023-05-13T11:46:09.539Z,1018.52
2023-05-13T11:47:09.526Z,1018.58
2023-05-13T11:48:09.624Z,1018.38
2023-05-13T11:49:09.590Z,1018.41
2023-05-13T11:50:09.616Z,1018.50
2023-05-13T11:51:09.628Z,1018.44
2023-05-13T11:52:09.640Z,1018.39
2023-05-13T11:53:09.659Z,1018.45
2023-05-13T11:54:09.683Z,1018.43
2023-05-13T11:55:09.705Z,1018.53
2023-05-13T11:56:09.727Z,1018.53
2023-05-13T11:57:09.750Z,1018.53
2023-05-13T11:58:09.777Z,1018.44
2023-05-13T11:59:09.800Z,1018.47
2023-05-13T12:00:09.828Z,1018.50
2023-05-13T12:01:09.849Z,1018.43
2023-05-13T12:02:09.890Z,1018.50
2023-05-13T12:03:09.951Z,1018.07
2023-05-13T12:04:09.925Z,1017.55
2023-05-13T12:05:10.024Z,1017.63
2023-05-13T12:06:10.001Z,1018.61
2023-05-13T12:07:09.995Z,1018.58